North White Plains, New York
Current Conditions -  °F | °C
As of 4:56 PM on Saturday 25 Oct 2014 (Local Time) from KHPN Reporting Station
Clear Clear  
Wind Chill: 65°   Ceiling: Unl
Heat Index: 65°   Visibility: 10mi
Dew Point: 41°   Wind: 5mph
Humidity: 42%   Direction: 190°S
Pressure: 29.64"   Gusts: NA
Location:  41.0597°N, 73.7747°W
Report Text: KHPN 252056Z 19004KT 10SM CLR 18/05 A2964 RMK AO2 SLP037 T01830050 58024
Loading
Personal Weather Stations






























Interactive Weather Map
Tropical Storm Tracking
New forecast layout! Learn more

10-Day Weather Forecast

Advertisements
Track Severe Weather on mobile